createdAt,value
2019-01-21T00:02:08.461Z,-6.48
2019-01-21T00:06:13.437Z,-6.59
2019-01-21T00:10:18.342Z,-6.57
2019-01-21T00:14:23.264Z,-6.49
2019-01-21T00:18:28.189Z,-6.58
2019-01-21T00:22:33.176Z,-6.61
2019-01-21T00:26:38.086Z,-6.62
2019-01-21T00:30:43.007Z,-6.65
2019-01-21T00:34:48.043Z,-6.91
2019-01-21T00:38:52.940Z,-6.81
2019-01-21T00:42:57.849Z,-6.86
2019-01-21T00:47:02.738Z,-7.06
2019-01-21T00:51:07.654Z,-6.89
2019-01-21T00:55:12.642Z,-6.97
2019-01-21T00:59:17.663Z,-7.06
2019-01-21T01:03:22.580Z,-7.18
2019-01-21T01:07:27.502Z,-7.00
2019-01-21T01:11:32.519Z,-7.12
2019-01-21T01:15:37.456Z,-7.20
2019-01-21T01:19:42.351Z,-7.28
2019-01-21T01:23:47.239Z,-7.37
2019-01-21T01:27:52.588Z,-7.59
2019-01-21T01:31:57.496Z,-7.41
2019-01-21T01:36:02.471Z,-7.23
2019-01-21T01:40:11.353Z,-7.50
2019-01-21T01:44:16.274Z,-7.37
2019-01-21T01:48:21.450Z,-7.20
2019-01-21T01:52:26.367Z,-7.59
2019-01-21T01:56:31.340Z,-7.27
2019-01-21T02:00:36.795Z,-7.31
2019-01-21T02:04:41.690Z,-7.51
2019-01-21T02:08:46.999Z,-7.61
2019-01-21T02:12:51.892Z,-7.45
2019-01-21T02:16:56.813Z,-7.37
2019-01-21T02:21:02.823Z,-7.72
2019-01-21T02:25:08.428Z,-7.51
2019-01-21T02:29:54.167Z,-7.59
2019-01-21T02:35:08.761Z,-7.46
2019-01-21T02:39:33.141Z,-7.61
2019-01-21T02:44:44.475Z,-7.78
2019-01-21T02:49:06.720Z,-7.69
2019-01-21T02:54:14.445Z,-7.91
2019-01-21T02:58:46.694Z,-8.00
2019-01-21T03:03:37.424Z,-7.96
2019-01-21T03:08:30.914Z,-7.80
2019-01-21T03:13:19.455Z,-8.03
2019-01-21T03:18:07.999Z,-7.73
2019-01-21T03:22:50.133Z,-7.99
2019-01-21T03:27:58.376Z,-7.99
2019-01-21T03:32:51.738Z,-8.10
2019-01-21T03:38:03.644Z,-8.10
2019-01-21T03:42:41.830Z,-8.29
2019-01-21T03:47:29.684Z,-8.24
2019-01-21T03:52:17.264Z,-8.00
2019-01-21T03:57:03.951Z,-8.32
2019-01-21T04:02:36.579Z,-8.04
2019-01-21T04:07:24.817Z,-8.42
2019-01-21T04:12:30.636Z,-8.29
2019-01-21T04:17:17.580Z,-8.56
2019-01-21T04:22:01.150Z,-8.29
2019-01-21T04:26:42.879Z,-8.33
2019-01-21T04:31:44.925Z,-8.28
2019-01-21T04:36:32.599Z,-8.39
2019-01-21T04:40:57.427Z,-8.35
2019-01-21T04:45:56.708Z,-8.44
2019-01-21T04:50:56.775Z,-8.28
2019-01-21T04:56:00.304Z,-8.59
2019-01-21T05:00:42.194Z,-8.62
2019-01-21T05:05:26.154Z,-8.56
2019-01-21T05:10:34.696Z,-8.48
2019-01-21T05:15:41.549Z,-8.46
2019-01-21T05:21:04.900Z,-8.54
2019-01-21T05:26:12.993Z,-8.48
2019-01-21T05:30:59.591Z,-8.59
2019-01-21T05:36:04.886Z,-8.63
2019-01-21T05:40:57.871Z,-8.36
2019-01-21T05:45:44.007Z,-8.39
2019-01-21T05:50:18.141Z,-8.47
2019-01-21T05:55:07.503Z,-8.63
2019-01-21T05:59:48.795Z,-8.71
2019-01-21T06:04:41.285Z,-8.65
2019-01-21T06:09:32.138Z,-8.48
2019-01-21T06:14:21.366Z,-8.67
2019-01-21T06:19:29.455Z,-8.50
2019-01-21T06:24:00.008Z,-8.37
2019-01-21T06:29:11.855Z,-8.49
2019-01-21T06:33:56.413Z,-8.66
2019-01-21T06:39:10.413Z,-8.56
2019-01-21T06:44:10.314Z,-8.26
2019-01-21T06:48:54.584Z,-8.38
2019-01-21T06:53:34.494Z,-8.52
2019-01-21T06:58:13.051Z,-8.40
2019-01-21T07:03:25.061Z,-8.42
2019-01-21T07:08:17.949Z,-8.59
2019-01-21T07:13:15.263Z,-8.44
2019-01-21T07:18:12.421Z,-8.49
2019-01-21T07:23:09.145Z,-8.40
2019-01-21T07:27:57.635Z,-8.45
2019-01-21T07:32:22.633Z,-8.12
2019-01-21T07:37:31.302Z,-8.42
2019-01-21T07:42:26.257Z,-8.39
2019-01-21T07:47:26.488Z,-8.37
2019-01-21T07:52:27.672Z,-8.23
2019-01-21T07:57:23.184Z,-8.26
2019-01-21T08:02:06.041Z,-8.10
2019-01-21T08:06:48.960Z,-7.84
2019-01-21T08:11:44.482Z,-7.73
2019-01-21T08:16:38.954Z,-7.84
2019-01-21T08:21:34.272Z,-7.58
2019-01-21T08:26:16.023Z,-7.51
2019-01-21T08:31:29.472Z,-7.08
2019-01-21T08:36:39.341Z,-6.95
2019-01-21T08:41:45.542Z,-6.51
2019-01-21T08:46:27.112Z,-6.24
2019-01-21T08:51:13.200Z,-6.26
2019-01-21T08:56:02.625Z,-6.29
2019-01-21T09:00:19.880Z,-6.18
2019-01-21T09:05:29.395Z,-6.03
2019-01-21T09:10:06.049Z,-5.92
2019-01-21T09:14:40.993Z,-5.62
2019-01-21T09:19:21.752Z,-5.60
2019-01-21T09:24:08.083Z,-5.46
2019-01-21T09:29:07.322Z,-5.24
2019-01-21T09:34:11.637Z,-5.23
2019-01-21T09:39:14.948Z,-5.16
2019-01-21T09:43:59.014Z,-4.91
2019-01-21T09:48:02.070Z,-4.71
2019-01-21T09:52:19.201Z,-4.72
2019-01-21T09:56:24.955Z,-4.53
2019-01-21T10:00:29.860Z,-4.43
2019-01-21T10:05:07.272Z,-4.38
2019-01-21T10:09:48.419Z,-4.34
2019-01-21T10:14:59.125Z,-4.27
2019-01-21T10:20:19.629Z,-4.10
2019-01-21T10:24:53.724Z,-3.88
2019-01-21T10:30:06.224Z,-3.86
2019-01-21T10:35:10.555Z,-3.65
2019-01-21T10:40:07.922Z,-3.59
2019-01-21T10:44:59.008Z,-3.32
2019-01-21T10:49:43.693Z,-3.26
2019-01-21T10:54:36.787Z,-3.11
2019-01-21T10:59:32.807Z,-3.15
2019-01-21T11:04:26.466Z,-2.89
2019-01-21T11:09:35.847Z,-2.89
2019-01-21T11:14:47.651Z,-2.62
2019-01-21T11:19:54.072Z,-2.64
2019-01-21T11:25:42.129Z,-2.51
2019-01-21T11:30:21.510Z,-2.32
2019-01-21T11:35:19.630Z,-2.23
2019-01-21T11:40:32.365Z,-1.92
2019-01-21T11:45:41.451Z,-1.79
2019-01-21T11:50:43.788Z,-1.75
2019-01-21T11:55:40.019Z,-1.64
2019-01-21T12:00:42.658Z,-1.44
2019-01-21T12:05:30.758Z,-1.18
2019-01-21T12:10:40.571Z,-1.08
2019-01-21T12:15:26.032Z,-1.06
2019-01-21T12:20:03.145Z,-1.14
2019-01-21T12:24:45.871Z,-1.12
2019-01-21T12:29:45.932Z,-0.50
2019-01-21T12:34:46.544Z,-0.66
2019-01-21T12:39:09.694Z,-0.27
2019-01-21T12:43:42.301Z,0.52
2019-01-21T12:48:29.438Z,1.26
2019-01-21T12:52:53.198Z,1.46
2019-01-21T12:58:19.675Z,3.05
2019-01-21T13:03:34.609Z,2.62
2019-01-21T13:08:58.314Z,2.45
2019-01-21T13:13:58.556Z,3.39
2019-01-21T13:18:54.741Z,3.69
2019-01-21T13:23:51.338Z,4.50
2019-01-21T13:28:45.780Z,4.27
2019-01-21T13:33:34.428Z,3.40
2019-01-21T13:38:29.650Z,3.39
2019-01-21T13:43:17.997Z,2.30
2019-01-21T13:48:19.054Z,2.35
2019-01-21T13:52:59.862Z,1.46
2019-01-21T13:58:14.531Z,1.51
2019-01-21T14:02:43.413Z,0.69
2019-01-21T14:07:36.823Z,0.51
2019-01-21T14:12:31.916Z,0.59
2019-01-21T14:17:40.908Z,0.49
2019-01-21T14:22:44.950Z,0.75
2019-01-21T14:28:01.535Z,0.71
2019-01-21T14:32:36.276Z,0.77
2019-01-21T14:37:47.299Z,0.32
2019-01-21T14:42:48.493Z,0.40
2019-01-21T14:47:51.103Z,0.10
2019-01-21T14:53:08.848Z,0.04
2019-01-21T14:58:05.098Z,-0.03
2019-01-21T15:03:00.668Z,-0.06
2019-01-21T15:07:32.612Z,-0.06
2019-01-21T15:12:46.254Z,-0.07
2019-01-21T15:17:49.552Z,-0.23
2019-01-21T15:22:38.426Z,-0.44
2019-01-21T15:27:22.263Z,-0.53
2019-01-21T15:32:12.655Z,-0.72
2019-01-21T15:37:08.951Z,-0.95
2019-01-21T15:41:59.379Z,-1.15
2019-01-21T15:47:05.615Z,-1.19
2019-01-21T15:51:57.591Z,-1.32
2019-01-21T15:56:51.238Z,-1.40
2019-01-21T16:02:01.452Z,-1.70
2019-01-21T16:07:06.187Z,-1.74
2019-01-21T16:11:48.562Z,-1.98
2019-01-21T16:17:08.257Z,-2.29
2019-01-21T16:22:05.516Z,-2.33
2019-01-21T16:26:27.569Z,-2.60
2019-01-21T16:30:57.315Z,-2.66
2019-01-21T16:35:31.528Z,-2.70
2019-01-21T16:40:26.627Z,-2.83
2019-01-21T16:44:31.628Z,-2.96
2019-01-21T16:48:36.934Z,-3.06
2019-01-21T16:52:41.956Z,-3.09
2019-01-21T16:56:46.959Z,-3.16
2019-01-21T17:00:51.947Z,-3.21
2019-01-21T17:04:56.824Z,-3.32
2019-01-21T17:09:01.745Z,-3.30
2019-01-21T17:13:06.731Z,-3.55
2019-01-21T17:21:16.892Z,-3.59
2019-01-21T17:25:21.844Z,-3.72
2019-01-21T17:29:26.752Z,-3.68
2019-01-21T17:33:32.312Z,-3.67
2019-01-21T17:37:37.498Z,-3.72
2019-01-21T17:41:42.478Z,-3.74
2019-01-21T17:45:47.390Z,-3.75
2019-01-21T17:49:52.335Z,-3.80
2019-01-21T17:53:57.241Z,-3.95
2019-01-21T17:58:02.221Z,-3.86
2019-01-21T18:02:07.535Z,-3.96
2019-01-21T18:06:12.448Z,-3.95
2019-01-21T18:10:20.447Z,-3.97
2019-01-21T18:14:25.455Z,-4.03
2019-01-21T18:18:30.373Z,-4.13
2019-01-21T18:22:35.401Z,-4.21
2019-01-21T18:26:40.426Z,-4.13
2019-01-21T18:30:45.316Z,-4.28
2019-01-21T18:34:50.684Z,-4.37
2019-01-21T18:38:55.594Z,-4.24
2019-01-21T18:43:00.628Z,-4.38
2019-01-21T18:47:05.890Z,-4.44
2019-01-21T18:51:10.892Z,-4.45
2019-01-21T18:55:15.777Z,-4.50
2019-01-21T18:59:20.793Z,-4.29
2019-01-21T19:03:26.169Z,-4.30
2019-01-21T19:07:31.218Z,-4.40
2019-01-21T19:11:36.549Z,-4.62
2019-01-21T19:15:41.429Z,-4.65
2019-01-21T19:19:46.342Z,-4.68
2019-01-21T19:23:51.681Z,-4.80
2019-01-21T19:27:56.732Z,-4.79
2019-01-21T19:32:01.723Z,-4.79
2019-01-21T19:36:06.735Z,-4.61
2019-01-21T19:40:16.332Z,-4.91
2019-01-21T19:44:21.635Z,-4.97
2019-01-21T19:48:26.531Z,-5.04
2019-01-21T19:52:31.462Z,-5.13
2019-01-21T19:56:36.449Z,-5.11
2019-01-21T20:00:41.460Z,-4.98
2019-01-21T20:04:46.374Z,-5.05
2019-01-21T20:08:51.281Z,-5.30
2019-01-21T20:12:56.239Z,-5.17
2019-01-21T20:17:01.392Z,-5.21
2019-01-21T20:21:06.436Z,-5.35
2019-01-21T20:25:11.673Z,-5.29
2019-01-21T20:29:16.667Z,-5.30
2019-01-21T20:33:21.620Z,-5.22
2019-01-21T20:37:31.144Z,-5.43
2019-01-21T20:41:36.082Z,-5.36
2019-01-21T20:45:41.685Z,-5.52
2019-01-21T20:49:46.567Z,-5.49
2019-01-21T20:53:52.173Z,-5.52
2019-01-21T20:57:57.543Z,-5.38
2019-01-21T21:02:02.702Z,-5.59
2019-01-21T21:06:07.946Z,-5.65
2019-01-21T21:10:13.259Z,-5.75
2019-01-21T21:14:18.599Z,-5.77
2019-01-21T21:18:23.554Z,-5.93
2019-01-21T21:22:28.601Z,-5.90
2019-01-21T21:26:33.539Z,-6.02
2019-01-21T21:30:38.547Z,-5.99
2019-01-21T21:34:43.936Z,-6.04
2019-01-21T21:38:48.865Z,-6.09
2019-01-21T21:42:53.820Z,-6.19
2019-01-21T21:46:58.783Z,-6.22
2019-01-21T21:51:03.730Z,-6.33
2019-01-21T21:55:10.249Z,-6.31
2019-01-21T21:59:15.455Z,-6.34
2019-01-21T22:03:20.409Z,-6.31
2019-01-21T22:07:25.432Z,-6.39
2019-01-21T22:11:30.365Z,-6.39
2019-01-21T22:15:35.681Z,-6.42
2019-01-21T22:19:40.708Z,-6.26
2019-01-21T22:23:45.630Z,-6.36
2019-01-21T22:27:50.571Z,-6.30
2019-01-21T22:31:55.515Z,-6.46
2019-01-21T22:36:00.846Z,-6.35
2019-01-21T22:40:08.723Z,-5.82
2019-01-21T22:44:14.207Z,-6.23
2019-01-21T22:48:19.124Z,-6.25
2019-01-21T22:52:24.332Z,-6.18
2019-01-21T22:56:29.284Z,-6.10
2019-01-21T23:01:11.807Z,-6.21
2019-01-21T23:05:16.856Z,-6.19
2019-01-21T23:09:22.071Z,-6.16
2019-01-21T23:13:26.964Z,-5.82
2019-01-21T23:17:31.895Z,-5.99
2019-01-21T23:21:36.854Z,-6.14
2019-01-21T23:25:41.779Z,-6.02
2019-01-21T23:29:46.684Z,-6.10
2019-01-21T23:33:51.924Z,-6.03
2019-01-21T23:37:56.855Z,-5.90
2019-01-21T23:42:01.858Z,-5.94
2019-01-21T23:46:06.770Z,-5.86
2019-01-21T23:50:11.689Z,-5.80
2019-01-21T23:54:17.051Z,-5.70
2019-01-21T23:58:21.961Z,-5.71
